Time;durP1;ratioP1;P1;durP2;ratioP2;P2;SDS_P1;SDS_P2;PMS_P1;PMS_P2;Temp;Humidity;BMP_temperature;BMP_pressure;BME280_temperature;BME280_humidity;BME280_pressure;Samples;Min_cycle;Max_cycle;Signal;HPM_P1;HPM_P2
2021/11/19 00:01:09;;;;;;;7.97;5.00;;;;;;;9.79;97.32;101979.97;4995934;28;20488;-56
2021/11/19 00:03:35;;;;;;;8.80;5.60;;;;;;;9.77;97.04;101960.63;5010936;28;20966;-57
2021/11/19 00:06:01;;;;;;;8.60;4.88;;;;;;;9.86;96.43;101964.69;4994676;28;20510;-57
2021/11/19 00:08:27;;;;;;;11.02;5.40;;;;;;;9.87;96.49;101961.81;4997377;28;20056;-58
2021/11/19 00:10:57;;;;;;;12.68;5.40;;;;;;;9.89;96.47;101959.75;4998156;28;20030;-59
2021/11/19 00:13:24;;;;;;;7.65;4.97;;;;;;;9.94;95.98;101956.44;4994197;28;20034;-56
2021/11/19 00:15:49;;;;;;;8.95;4.88;;;;;;;9.91;96.07;101979.09;5001188;28;20038;-59
2021/11/19 00:18:15;;;;;;;8.27;5.32;;;;;;;9.88;96.66;101949.28;5004811;28;20395;-59
2021/11/19 00:20:41;;;;;;;8.10;5.35;;;;;;;9.89;96.46;101972.31;5002119;28;20086;-59
2021/11/19 00:23:07;;;;;;;8.35;4.30;;;;;;;9.89;96.63;101951.72;5016944;28;20112;-58
2021/11/19 00:25:34;;;;;;;8.52;4.72;;;;;;;9.95;95.99;101947.38;5001587;28;20543;-57
2021/11/19 00:28:00;;;;;;;10.27;5.45;;;;;;;9.89;96.50;101938.34;5017565;28;20029;-58
2021/11/19 00:30:28;;;;;;;6.93;4.50;;;;;;;9.94;96.24;101935.84;5002295;28;20399;-59
2021/11/19 00:32:53;;;;;;;9.82;4.70;;;;;;;10.10;95.63;101934.50;5003525;28;20288;-57
2021/11/19 00:35:20;;;;;;;9.05;5.28;;;;;;;9.97;96.04;101932.72;5002805;28;20546;-57
2021/11/19 00:37:48;;;;;;;6.78;4.65;;;;;;;9.99;96.14;101938.69;5001858;28;20033;-58
2021/11/19 00:40:19;;;;;;;9.07;5.45;;;;;;;10.05;95.79;101931.63;4999165;28;20026;-56
2021/11/19 00:42:45;;;;;;;7.65;5.25;;;;;;;10.04;95.81;101939.88;4998466;28;20030;-56
2021/11/19 00:45:11;;;;;;;8.95;4.60;;;;;;;10.06;96.09;101935.97;5000520;28;20032;-58
2021/11/19 00:47:37;;;;;;;7.25;5.15;;;;;;;10.11;95.93;101938.81;5002512;28;20084;-55
2021/11/19 00:50:07;;;;;;;10.48;4.70;;;;;;;10.11;96.02;101954.88;5001839;28;20034;-60
2021/11/19 00:52:32;;;;;;;7.40;4.57;;;;;;;10.13;95.88;101974.25;5001055;28;20573;-59
2021/11/19 00:54:58;;;;;;;8.25;4.65;;;;;;;10.12;96.56;101971.78;5003419;28;20057;-57
2021/11/19 00:57:24;;;;;;;7.88;4.20;;;;;;;10.14;96.25;101972.38;5002038;28;20044;-56
2021/11/19 00:59:49;;;;;;;7.22;4.82;;;;;;;10.17;96.47;101969.28;4997654;28;20114;-59
2021/11/19 01:02:24;;;;;;;9.13;4.82;;;;;;;10.16;96.37;101978.34;5002252;28;20447;-58
2021/11/19 01:04:52;;;;;;;7.88;4.00;;;;;;;10.12;96.67;101985.16;5004041;28;20396;-59
2021/11/19 01:07:19;;;;;;;10.40;4.03;;;;;;;10.13;96.46;101992.16;4999799;28;20060;-57
2021/11/19 01:09:49;;;;;;;8.48;4.53;;;;;;;10.17;96.50;101966.59;5004508;28;20088;-60
2021/11/19 01:12:18;;;;;;;8.65;4.38;;;;;;;10.16;96.89;101975.66;5000524;28;20465;-57
2021/11/19 01:14:52;;;;;;;7.82;4.32;;;;;;;10.14;97.18;101975.06;4999687;28;20034;-60
2021/11/19 01:17:22;;;;;;;7.93;4.68;;;;;;;10.09;97.91;101978.38;4999817;28;20033;-56
2021/11/19 01:20:11;;;;;;;10.23;4.85;;;;;;;10.14;98.16;101977.75;5002957;28;20029;-58
2021/11/19 01:22:40;;;;;;;9.05;4.40;;;;;;;10.15;97.96;101969.50;5001905;28;20030;-57
2021/11/19 01:25:10;;;;;;;6.32;4.10;;;;;;;10.16;98.45;101972.97;4999054;28;20480;-59
2021/11/19 01:27:36;;;;;;;8.45;4.55;;;;;;;10.15;98.34;101974.84;4999474;28;20022;-58
2021/11/19 01:30:05;;;;;;;8.38;4.20;;;;;;;10.12;99.13;101966.44;5002771;28;20450;-60
2021/11/19 01:32:30;;;;;;;7.45;4.78;;;;;;;10.10;99.44;101960.47;5000513;28;20033;-57
2021/11/19 01:34:56;;;;;;;6.25;4.60;;;;;;;10.12;99.22;101967.25;5001734;28;20569;-60
2021/11/19 01:37:22;;;;;;;8.00;4.10;;;;;;;10.19;99.33;101969.88;5000328;28;20084;-58
2021/11/19 01:39:48;;;;;;;6.00;4.22;;;;;;;10.23;99.01;101968.44;5001695;28;20088;-58
2021/11/19 01:42:21;;;;;;;7.03;4.10;;;;;;;10.22;98.65;101961.44;4996488;28;20497;-60
2021/11/19 01:45:16;;;;;;;6.53;3.65;;;;;;;10.21;98.51;101959.78;5001922;28;20038;-57
2021/11/19 01:47:51;;;;;;;7.45;4.30;;;;;;;10.27;98.04;101961.63;4997779;28;20041;-56
2021/11/19 01:50:33;;;;;;;10.73;4.53;;;;;;;10.27;97.98;101961.63;5017017;28;20054;-57
2021/11/19 01:53:21;;;;;;;5.90;4.38;;;;;;;10.24;98.57;101962.06;5001124;28;20053;-57
2021/11/19 01:56:20;;;;;;;6.28;4.20;;;;;;;10.36;98.25;101943.41;5002262;28;21246;-58
2021/11/19 01:58:54;;;;;;;8.32;4.38;;;;;;;10.37;98.08;101951.22;4998868;28;20125;-60
2021/11/19 02:01:28;;;;;;;8.60;5.03;;;;;;;10.32;98.21;101959.13;5001725;28;20462;-57
2021/11/19 02:03:58;;;;;;;5.93;4.30;;;;;;;10.37;98.41;101967.31;4999691;28;20496;-57
2021/11/19 02:06:33;;;;;;;8.60;4.63;;;;;;;10.35;98.80;101947.97;5001195;28;20037;-57
2021/11/19 02:08:59;;;;;;;7.10;4.78;;;;;;;10.41;98.61;101952.47;4999346;28;20022;-56
2021/11/19 02:11:27;;;;;;;6.63;4.57;;;;;;;10.38;98.67;101950.19;5001386;28;20104;-58
2021/11/19 02:14:00;;;;;;;15.00;5.47;;;;;;;10.40;98.51;101942.75;4999231;28;20022;-59
2021/11/19 02:16:34;;;;;;;7.93;5.03;;;;;;;10.39;98.74;101938.44;5000049;28;20069;-56
2021/11/19 02:19:12;;;;;;;6.70;4.15;;;;;;;10.51;98.43;101936.72;5001616;28;20021;-59
2021/11/19 02:21:49;;;;;;;9.38;4.60;;;;;;;10.51;98.36;101936.72;4998959;28;20265;-60
2021/11/19 02:24:22;;;;;;;5.70;4.03;;;;;;;10.52;98.46;101946.38;4998358;28;20557;-58
2021/11/19 02:27:10;;;;;;;6.13;4.57;;;;;;;10.44;98.65;101941.31;4999900;28;20042;-58
2021/11/19 02:29:49;;;;;;;6.20;4.68;;;;;;;10.53;98.80;101942.66;4999649;28;20152;-58
2021/11/19 02:32:20;;;;;;;7.88;4.30;;;;;;;10.57;98.72;101943.88;4999374;28;20061;-58
2021/11/19 02:34:46;;;;;;;6.25;3.95;;;;;;;10.61;98.45;101946.94;5000551;28;20029;-56
2021/11/19 02:37:29;;;;;;;5.80;4.30;;;;;;;10.58;100.00;101953.53;4999744;28;20030;-55
2021/11/19 02:40:03;;;;;;;6.65;4.10;;;;;;;10.56;98.75;101952.94;4998041;28;20037;-58
2021/11/19 02:42:37;;;;;;;7.80;4.55;;;;;;;10.55;99.21;101945.94;4997105;28;20057;-58
2021/11/19 02:45:08;;;;;;;7.25;4.60;;;;;;;10.58;98.97;101942.81;5001585;28;20026;-60
2021/11/19 02:47:34;;;;;;;8.00;5.20;;;;;;;10.56;99.57;101936.88;5000544;28;20028;-58
2021/11/19 02:49:59;;;;;;;7.38;3.97;;;;;;;10.60;99.37;101934.59;5000706;28;20026;-59
2021/11/19 02:52:31;;;;;;;8.10;4.40;;;;;;;10.64;99.44;101941.16;4998001;28;20392;-60
2021/11/19 02:54:59;;;;;;;6.78;4.15;;;;;;;10.56;99.42;101942.22;4996966;28;20022;-58
2021/11/19 02:57:26;;;;;;;6.75;4.40;;;;;;;10.58;100.00;101942.81;4995661;28;20103;-59
2021/11/19 02:59:53;;;;;;;7.50;4.22;;;;;;;10.58;100.00;101950.03;4998369;28;20479;-56
2021/11/19 03:02:24;;;;;;;6.75;4.00;;;;;;;10.65;100.00;101953.50;4999385;28;20497;-60
2021/11/19 03:04:55;;;;;;;9.90;3.63;;;;;;;10.64;99.73;101961.78;5000919;28;20030;-61
2021/11/19 03:07:21;;;;;;;5.88;3.40;;;;;;;10.67;100.00;101942.56;4997651;28;20388;-56
2021/11/19 03:09:54;;;;;;;8.02;4.30;;;;;;;10.61;99.83;101946.94;5014182;28;20397;-60
2021/11/19 03:12:23;;;;;;;6.45;3.92;;;;;;;10.65;99.97;101950.81;4997000;28;20045;-55
2021/11/19 03:14:50;;;;;;;6.38;3.83;;;;;;;10.64;100.00;101959.91;4999706;28;20033;-55
2021/11/19 03:17:17;;;;;;;6.07;3.38;;;;;;;10.68;100.00;101968.31;5000522;28;20065;-57
2021/11/19 03:19:44;;;;;;;6.65;3.28;;;;;;;10.67;100.00;101950.59;5000334;28;20487;-56
2021/11/19 03:22:12;;;;;;;7.40;3.60;;;;;;;10.61;100.00;101959.53;4999785;28;20037;-55
2021/11/19 03:24:38;;;;;;;5.22;3.13;;;;;;;10.63;100.00;101960.94;4991729;28;20076;-59
2021/11/19 03:27:05;;;;;;;5.50;2.95;;;;;;;10.66;100.00;101965.03;4997281;28;20040;-60
2021/11/19 03:29:30;;;;;;;8.38;4.07;;;;;;;10.64;100.00;101976.00;4998174;28;20061;-56
2021/11/19 03:31:56;;;;;;;6.20;3.30;;;;;;;10.66;100.00;101955.16;4994280;28;20030;-61
2021/11/19 03:34:22;;;;;;;8.07;2.88;;;;;;;10.65;100.00;101963.41;5000245;28;20491;-55
2021/11/19 03:36:51;;;;;;;6.30;2.95;;;;;;;10.66;100.00;101954.31;4998769;28;20044;-55
2021/11/19 03:39:20;;;;;;;6.35;3.10;;;;;;;10.71;100.00;101962.53;5001899;28;20396;-58
2021/11/19 03:41:47;;;;;;;4.10;2.97;;;;;;;10.78;100.00;101958.75;4997781;28;20108;-59
2021/11/19 03:44:25;;;;;;;7.22;3.05;;;;;;;10.71;100.00;101971.38;4999634;28;20454;-58
2021/11/19 03:47:00;;;;;;;4.75;3.05;;;;;;;10.65;100.00;101966.91;4997409;28;20026;-59
2021/11/19 03:49:27;;;;;;;3.60;2.40;;;;;;;10.70;100.00;101960.88;5003114;28;20141;-57
2021/11/19 03:52:09;;;;;;;4.82;3.10;;;;;;;10.70;100.00;101966.25;5000421;28;20060;-58
2021/11/19 03:54:37;;;;;;;3.75;2.80;;;;;;;10.72;100.00;101954.25;5006462;28;20099;-57
2021/11/19 03:57:03;;;;;;;7.88;2.65;;;;;;;10.83;100.00;101947.38;5002083;28;20091;-59
2021/11/19 03:59:29;;;;;;;3.97;2.80;;;;;;;10.86;100.00;101976.41;5003126;28;20034;-58
2021/11/19 04:01:57;;;;;;;5.35;3.03;;;;;;;10.85;100.00;101942.59;4999225;28;20041;-57
2021/11/19 04:04:27;;;;;;;3.30;2.50;;;;;;;10.87;100.00;101972.69;5002985;28;20065;-56
2021/11/19 04:06:53;;;;;;;4.13;2.75;;;;;;;10.87;100.00;101972.69;5000148;28;20403;-58
2021/11/19 04:09:20;;;;;;;6.15;3.03;;;;;;;10.93;100.00;101961.06;5003599;28;20026;-58
2021/11/19 04:11:46;;;;;;;4.78;2.65;;;;;;;10.94;100.00;101969.94;5002906;28;20033;-56
2021/11/19 04:14:12;;;;;;;3.90;2.05;;;;;;;10.95;100.00;101961.72;5005203;28;20511;-57
2021/11/19 04:16:41;;;;;;;4.20;2.33;;;;;;;10.97;99.75;101964.97;4997986;28;20030;-56
2021/11/19 04:19:09;;;;;;;3.95;2.60;;;;;;;10.98;99.96;101963.13;5003047;28;20025;-58
2021/11/19 04:21:36;;;;;;;2.25;1.98;;;;;;;11.03;99.88;101971.31;5001782;28;20395;-57
2021/11/19 04:24:03;;;;;;;5.28;2.28;;;;;;;10.96;99.67;101971.38;5004669;28;20037;-58
2021/11/19 04:26:32;;;;;;;2.83;2.35;;;;;;;10.92;100.00;101970.16;5003574;28;20484;-58
2021/11/19 04:28:58;;;;;;;4.07;2.70;;;;;;;11.00;100.00;101966.41;5001451;28;20029;-57
2021/11/19 04:31:27;;;;;;;4.30;2.30;;;;;;;10.93;100.00;101966.44;5001180;28;20029;-57
2021/11/19 04:33:53;;;;;;;2.47;2.25;;;;;;;11.01;100.00;101962.66;5001642;28;20026;-58
2021/11/19 04:36:19;;;;;;;5.65;2.42;;;;;;;10.99;100.00;101970.94;5002455;28;20453;-59
2021/11/19 04:38:45;;;;;;;2.55;2.30;;;;;;;10.92;100.00;101975.53;5005244;28;20041;-59
2021/11/19 04:41:11;;;;;;;2.97;1.80;;;;;;;10.98;100.00;101980.03;5002565;28;20149;-56
2021/11/19 04:43:37;;;;;;;3.33;2.40;;;;;;;11.03;100.00;101980.19;5004254;28;20400;-57
2021/11/19 04:46:05;;;;;;;3.05;1.85;;;;;;;11.01;100.00;101984.94;4999647;28;20026;-58
2021/11/19 04:48:34;;;;;;;4.03;2.10;;;;;;;10.98;100.00;101974.66;5001542;28;20485;-58
2021/11/19 04:51:03;;;;;;;3.13;2.58;;;;;;;11.04;100.00;101965.72;5001399;28;20029;-57
2021/11/19 04:53:29;;;;;;;4.30;2.28;;;;;;;11.11;100.00;101962.97;4999906;28;20022;-60
2021/11/19 04:55:55;;;;;;;4.03;2.35;;;;;;;11.06;100.00;101973.56;5002556;28;20049;-59
2021/11/19 04:58:22;;;;;;;3.50;2.50;;;;;;;11.10;100.00;101975.56;5001240;28;20030;-57
2021/11/19 05:00:51;;;;;;;2.75;2.15;;;;;;;11.08;99.93;101976.81;5000402;28;20731;-59
2021/11/19 05:03:17;;;;;;;4.22;2.42;;;;;;;11.07;100.00;101977.88;4999440;28;20049;-55
2021/11/19 05:05:44;;;;;;;2.30;2.00;;;;;;;11.14;99.93;101975.97;4997026;28;20033;-59
2021/11/19 05:08:10;;;;;;;3.28;2.60;;;;;;;11.12;100.00;101978.00;5000054;28;20563;-57
2021/11/19 05:10:37;;;;;;;6.15;2.28;;;;;;;11.19;99.88;101960.00;4998106;28;20053;-59
2021/11/19 05:13:05;;;;;;;4.22;2.10;;;;;;;11.25;99.61;101963.66;4998750;28;20030;-60
2021/11/19 05:15:32;;;;;;;4.80;2.58;;;;;;;11.16;99.87;101972.00;4999718;28;20025;-60
2021/11/19 05:17:57;;;;;;;2.88;2.00;;;;;;;11.19;99.73;101971.56;4998485;28;20022;-58
2021/11/19 05:20:24;;;;;;;4.25;2.33;;;;;;;11.18;99.77;101967.25;4998347;28;20395;-59
2021/11/19 05:22:51;;;;;;;4.38;2.30;;;;;;;11.16;99.80;101980.06;4996191;28;20030;-56
2021/11/19 05:25:20;;;;;;;3.90;2.50;;;;;;;11.26;99.30;101966.13;5001562;28;20514;-58
2021/11/19 05:27:46;;;;;;;3.42;2.50;;;;;;;11.20;99.15;101977.75;4998127;28;20072;-60
2021/11/19 05:30:13;;;;;;;4.40;2.25;;;;;;;11.27;99.18;101964.25;5000778;28;20029;-57
2021/11/19 05:32:39;;;;;;;4.28;2.88;;;;;;;11.31;98.30;101973.50;4998682;28;20113;-60
2021/11/19 05:35:06;;;;;;;4.68;2.63;;;;;;;11.36;97.69;101982.53;5000324;28;20146;-61
2021/11/19 05:37:32;;;;;;;3.05;2.60;;;;;;;11.30;99.40;101982.59;4999939;28;20018;-57
2021/11/19 05:39:58;;;;;;;4.05;1.98;;;;;;;11.36;98.20;101979.03;4999381;28;20030;-58
2021/11/19 05:42:23;;;;;;;4.03;2.33;;;;;;;11.38;97.26;101979.63;5001821;28;20157;-59
2021/11/19 05:44:49;;;;;;;13.52;2.70;;;;;;;11.45;96.71;101972.31;5002452;28;20053;-58
2021/11/19 05:47:14;;;;;;;5.47;2.40;;;;;;;11.46;96.21;101979.31;4997411;28;20389;-57
2021/11/19 05:49:41;;;;;;;5.60;2.40;;;;;;;11.50;95.73;101985.91;4995506;28;21839;-59
2021/11/19 05:52:09;;;;;;;3.78;2.80;;;;;;;11.48;95.36;101974.53;4953055;28;1178614;-58
2021/11/19 05:54:36;;;;;;;5.88;2.80;;;;;;;11.54;94.70;101992.44;5003921;28;20038;-59
2021/11/19 05:57:05;;;;;;;4.57;2.75;;;;;;;11.53;94.38;101982.75;4998526;28;20029;-57
2021/11/19 05:59:31;;;;;;;3.03;2.60;;;;;;;11.64;94.26;101983.84;4998701;28;20472;-60
2021/11/19 06:01:57;;;;;;;5.13;2.75;;;;;;;11.65;94.16;101972.06;4999459;28;20056;-57
2021/11/19 06:04:23;;;;;;;4.07;2.65;;;;;;;11.65;93.83;101974.75;5014212;28;20089;-58
2021/11/19 06:06:49;;;;;;;5.47;2.42;;;;;;;11.65;93.41;101980.13;4999902;28;20463;-57
2021/11/19 06:09:20;;;;;;;5.35;2.30;;;;;;;11.60;93.46;101970.06;5000540;28;20097;-60
2021/11/19 06:11:50;;;;;;;3.03;2.00;;;;;;;11.63;93.46;101976.84;5000203;28;20040;-58
2021/11/19 06:14:21;;;;;;;4.07;2.30;;;;;;;11.62;93.30;101978.72;5000617;28;20113;-57
2021/11/19 06:16:53;;;;;;;3.75;1.58;;;;;;;11.66;92.76;101984.44;4999348;28;20037;-58
2021/11/19 06:19:22;;;;;;;5.57;2.33;;;;;;;11.70;92.66;101981.09;5015856;28;20033;-58
2021/11/19 06:21:54;;;;;;;3.22;1.85;;;;;;;11.72;92.71;101994.31;5000255;28;20030;-59
2021/11/19 06:24:23;;;;;;;3.17;1.90;;;;;;;11.82;92.28;101991.09;5001523;28;20025;-59
2021/11/19 06:26:50;;;;;;;3.80;1.98;;;;;;;11.86;91.81;101982.38;4999800;28;20419;-58
2021/11/19 06:29:16;;;;;;;4.55;2.10;;;;;;;11.79;92.00;101978.94;5001658;28;20089;-57
2021/11/19 06:31:45;;;;;;;2.28;1.75;;;;;;;11.85;91.84;101977.22;5001210;28;20537;-57
2021/11/19 06:34:11;;;;;;;4.13;2.10;;;;;;;11.85;91.51;101980.75;5002231;28;20042;-59
2021/11/19 06:36:40;;;;;;;2.42;1.77;;;;;;;11.78;91.48;101980.81;4999612;28;20076;-56
2021/11/19 06:39:07;;;;;;;1.70;1.60;;;;;;;11.80;91.66;102007.44;5000422;28;20097;-60
2021/11/19 06:41:33;;;;;;;2.90;1.52;;;;;;;11.83;91.38;102001.63;4997475;28;20125;-58
2021/11/19 06:43:58;;;;;;;2.28;1.50;;;;;;;11.92;91.12;102002.13;5001623;28;20447;-59
2021/11/19 06:46:24;;;;;;;4.28;2.17;;;;;;;11.88;91.40;102004.47;5001818;28;20068;-57
2021/11/19 06:48:50;;;;;;;4.97;1.70;;;;;;;11.85;91.11;102002.25;4996356;28;20532;-58
2021/11/19 06:51:17;;;;;;;3.05;1.90;;;;;;;11.88;91.05;102007.16;4999675;28;20092;-56
2021/11/19 06:53:43;;;;;;;2.92;1.58;;;;;;;11.94;90.86;102003.56;4999684;28;20511;-55
2021/11/19 06:56:09;;;;;;;1.88;1.40;;;;;;;11.93;91.01;101999.22;5000696;28;20029;-59
2021/11/19 06:58:35;;;;;;;2.63;1.55;;;;;;;11.87;91.28;102002.84;4999597;28;20257;-60
2021/11/19 07:01:01;;;;;;;1.92;1.42;;;;;;;11.93;90.87;102001.91;5000923;28;20080;-58
2021/11/19 07:03:28;;;;;;;3.25;1.38;;;;;;;11.97;90.80;102011.16;5001701;28;20546;-59
2021/11/19 07:05:54;;;;;;;4.07;2.00;;;;;;;12.00;91.08;102004.50;5012898;28;20052;-58
2021/11/19 07:08:20;;;;;;;3.03;1.50;;;;;;;11.98;90.94;102010.09;5003903;28;20468;-61
2021/11/19 07:10:48;;;;;;;2.45;2.00;;;;;;;11.98;90.32;102011.97;5001134;28;20439;-59
2021/11/19 07:13:15;;;;;;;5.13;1.50;;;;;;;12.03;90.14;102023.69;5000839;28;20021;-57
2021/11/19 07:15:41;;;;;;;2.20;1.40;;;;;;;12.00;90.38;102024.13;4998514;28;20033;-61
2021/11/19 07:18:07;;;;;;;2.05;1.48;;;;;;;12.00;90.44;102020.63;4995508;28;20129;-57
2021/11/19 07:20:34;;;;;;;2.08;1.20;;;;;;;12.03;90.00;102037.13;5001300;28;20574;-57
2021/11/19 07:23:00;;;;;;;2.20;1.52;;;;;;;11.95;90.23;102045.47;4998968;28;20053;-57
2021/11/19 07:25:29;;;;;;;3.47;1.63;;;;;;;11.99;90.06;102043.97;5001348;28;20022;-60
2021/11/19 07:27:57;;;;;;;2.00;1.40;;;;;;;12.00;90.24;102047.47;5003951;28;20519;-56
2021/11/19 07:30:41;;;;;;;3.17;1.30;;;;;;;12.08;89.83;102056.06;4997733;28;20037;-57
2021/11/19 07:33:07;;;;;;;1.50;1.35;;;;;;;11.99;90.16;102067.34;4995659;28;20031;-60
2021/11/19 07:35:34;;;;;;;3.05;1.45;;;;;;;12.02;90.03;102058.81;4999197;28;20523;-58
2021/11/19 07:38:00;;;;;;;2.88;1.65;;;;;;;12.08;89.58;102066.00;4998898;28;20218;-55
2021/11/19 07:40:31;;;;;;;3.70;1.63;;;;;;;12.03;90.06;102057.81;5001293;28;20036;-58
2021/11/19 07:42:57;;;;;;;3.85;1.38;;;;;;;12.12;89.42;102056.44;4999319;28;20045;-58
2021/11/19 07:45:23;;;;;;;3.53;1.90;;;;;;;12.10;89.38;102066.59;5003265;28;20245;-58
2021/11/19 07:47:50;;;;;;;3.10;2.00;;;;;;;12.12;89.94;102066.34;4999627;28;20181;-58
2021/11/19 07:50:19;;;;;;;3.70;1.60;;;;;;;12.18;89.69;102062.75;4994494;28;20025;-58
2021/11/19 07:52:45;;;;;;;3.47;1.85;;;;;;;12.15;89.68;102061.34;5002890;28;20123;-57
2021/11/19 07:55:11;;;;;;;4.55;2.05;;;;;;;12.20;89.62;102076.78;5004137;28;20455;-57
2021/11/19 07:57:37;;;;;;;3.83;2.13;;;;;;;12.18;89.85;102054.69;5004806;28;20018;-57
2021/11/19 08:00:09;;;;;;;7.50;2.22;;;;;;;12.18;89.86;102050.13;5004481;28;20034;-57
2021/11/19 08:02:35;;;;;;;2.08;1.60;;;;;;;12.10;90.06;102059.34;5000461;28;20030;-58
2021/11/19 08:05:00;;;;;;;2.88;2.10;;;;;;;12.04;90.63;102070.19;4996972;28;20033;-57
2021/11/19 08:07:26;;;;;;;3.78;2.13;;;;;;;12.13;90.26;102063.44;5002889;28;20551;-57
2021/11/19 08:09:51;;;;;;;3.30;2.20;;;;;;;12.20;90.23;102052.59;5000914;28;20529;-57
2021/11/19 08:12:16;;;;;;;2.70;1.85;;;;;;;12.14;90.49;102059.72;5001032;28;20397;-57
2021/11/19 08:14:42;;;;;;;3.75;2.33;;;;;;;12.19;90.51;102051.78;5001615;28;20037;-57
2021/11/19 08:17:41;;;;;;;3.08;1.98;;;;;;;12.18;90.49;102046.63;5001975;28;20140;-57
2021/11/19 08:20:10;;;;;;;3.80;1.77;;;;;;;12.15;90.77;102055.97;4997832;28;20247;-55
2021/11/19 08:22:36;;;;;;;2.70;2.05;;;;;;;12.18;90.67;102043.94;4998499;28;20048;-57
2021/11/19 08:25:05;;;;;;;3.28;2.00;;;;;;;12.29;90.15;102038.63;5002168;28;20026;-57
2021/11/19 08:27:35;;;;;;;4.68;2.28;;;;;;;12.23;89.87;102062.91;5001825;28;20028;-57
2021/11/19 08:30:05;;;;;;;3.97;1.90;;;;;;;12.23;90.36;102036.03;4996376;28;20029;-57
2021/11/19 08:32:31;;;;;;;3.42;1.73;;;;;;;12.33;90.09;102037.13;5002508;28;20538;-57
2021/11/19 08:34:57;;;;;;;3.00;1.98;;;;;;;12.40;89.88;102028.97;5003122;28;20030;-57
2021/11/19 08:37:25;;;;;;;3.45;1.85;;;;;;;12.37;89.47;102032.91;5007534;28;20048;-57
2021/11/19 08:39:51;;;;;;;2.38;2.17;;;;;;;12.41;89.48;102017.19;4995353;28;20036;-56
2021/11/19 08:42:19;;;;;;;4.32;1.73;;;;;;;12.44;89.70;102015.91;5004517;28;20030;-56
2021/11/19 08:44:45;;;;;;;3.47;2.00;;;;;;;12.43;89.55;102022.31;4995420;28;20104;-55
2021/11/19 08:47:13;;;;;;;2.42;1.90;;;;;;;12.39;89.58;102025.47;5004817;28;20021;-56
2021/11/19 08:49:40;;;;;;;5.75;2.03;;;;;;;12.44;89.46;102034.72;5000498;28;20065;-57
2021/11/19 08:52:10;;;;;;;2.58;2.13;;;;;;;12.57;89.11;102031.84;5003672;28;20025;-57
2021/11/19 08:54:37;;;;;;;4.63;1.60;;;;;;;12.60;88.96;102042.13;5005316;28;20040;-57
2021/11/19 08:57:06;;;;;;;5.10;2.00;;;;;;;12.56;88.86;102040.94;5008771;28;20424;-57
2021/11/19 08:59:34;;;;;;;3.05;1.55;;;;;;;12.46;89.48;102046.06;5005667;28;20030;-57
2021/11/19 09:02:01;;;;;;;6.65;2.00;;;;;;;12.38;89.41;102055.25;5006747;28;20097;-56
2021/11/19 09:04:27;;;;;;;3.65;1.90;;;;;;;12.46;89.59;102048.75;5000627;28;20610;-57
2021/11/19 09:06:55;;;;;;;6.60;1.88;;;;;;;12.51;89.00;102049.69;5001317;28;20025;-57
2021/11/19 09:09:21;;;;;;;3.13;1.90;;;;;;;12.48;89.11;102054.72;4997834;28;20030;-56
2021/11/19 09:11:48;;;;;;;3.25;1.75;;;;;;;12.48;89.47;102052.84;4996328;28;20037;-57
2021/11/19 09:14:15;;;;;;;3.05;1.90;;;;;;;12.42;89.23;102069.06;5002038;28;20064;-56
2021/11/19 09:17:01;;;;;;;1.95;1.38;;;;;;;12.42;89.66;102040.31;5001076;28;20026;-55
2021/11/19 09:19:37;;;;;;;3.38;1.65;;;;;;;12.43;89.77;102046.50;4998095;28;20081;-56
2021/11/19 09:22:32;;;;;;;2.13;1.35;;;;;;;12.52;89.66;102050.50;5002379;28;20057;-58
2021/11/19 09:25:15;;;;;;;3.07;1.67;;;;;;;12.53;89.79;102055.66;4977456;28;20042;-57
2021/11/19 09:27:43;;;;;;;2.80;1.52;;;;;;;12.51;89.38;102060.44;5003587;28;20092;-55
2021/11/19 09:30:25;;;;;;;2.28;1.48;;;;;;;12.49;89.11;102056.34;5001348;28;20040;-58
2021/11/19 09:32:53;;;;;;;2.40;1.60;;;;;;;12.45;89.61;102055.16;5003950;28;20079;-56
2021/11/19 09:35:21;;;;;;;3.50;1.38;;;;;;;12.49;89.46;102057.16;4997637;28;20615;-57
2021/11/19 09:37:49;;;;;;;3.88;1.50;;;;;;;12.51;89.70;102065.00;5001337;28;20025;-55
2021/11/19 09:40:16;;;;;;;5.20;2.08;;;;;;;12.51;89.61;102073.06;5004195;28;20212;-57
2021/11/19 09:43:05;;;;;;;3.88;1.60;;;;;;;12.56;89.30;102078.56;4997570;28;20041;-57
2021/11/19 09:45:48;;;;;;;3.47;1.73;;;;;;;12.54;89.58;102072.59;4999227;28;20087;-57
2021/11/19 09:49:02;;;;;;;2.10;1.63;;;;;;;12.54;89.45;102083.34;5000173;28;20461;-57
2021/11/19 09:51:46;;;;;;;2.63;1.55;;;;;;;12.58;89.49;102082.69;4979410;28;20440;-57
2021/11/19 09:54:43;;;;;;;2.88;1.70;;;;;;;12.51;89.72;102086.50;5003117;28;20029;-57
2021/11/19 09:57:46;;;;;;;2.10;1.80;;;;;;;12.59;89.37;102086.19;4994478;28;20483;-57
2021/11/19 10:00:31;;;;;;;4.18;2.20;;;;;;;12.57;89.35;102089.13;4994070;28;20313;-57
2021/11/19 10:03:40;;;;;;;5.20;1.90;;;;;;;12.55;89.29;102085.00;5001017;28;20030;-57
2021/11/19 10:06:54;;;;;;;3.88;2.20;;;;;;;12.56;90.12;102079.38;5002344;28;20272;-56
2021/11/19 10:09:34;;;;;;;4.40;1.95;;;;;;;12.54;89.91;102075.28;4923684;29;20035;-57
2021/11/19 10:12:09;;;;;;;3.40;2.33;;;;;;;12.44;90.38;102070.47;4921201;29;20482;-57
2021/11/19 10:14:44;;;;;;;4.03;2.47;;;;;;;12.51;89.80;102073.06;4972464;28;20042;-57
2021/11/19 10:17:14;;;;;;;3.60;2.05;;;;;;;12.54;89.57;102078.78;4999124;28;20071;-56
2021/11/19 10:19:44;;;;;;;2.88;1.80;;;;;;;12.57;89.67;102058.72;5000913;28;20044;-57
2021/11/19 10:22:13;;;;;;;4.50;2.00;;;;;;;12.65;89.00;102066.44;5002612;28;20034;-57
2021/11/19 10:25:32;;;;;;;4.45;2.20;;;;;;;12.67;89.35;102056.28;5003191;28;20100;-55
2021/11/19 10:28:04;;;;;;;2.83;1.67;;;;;;;12.71;89.38;102044.00;4958803;28;20039;-57
2021/11/19 10:30:49;;;;;;;4.18;2.38;;;;;;;12.76;88.90;102046.03;4995397;28;20042;-57
2021/11/19 10:33:22;;;;;;;4.78;2.15;;;;;;;12.63;88.95;102047.03;5004353;28;20026;-55
2021/11/19 10:36:00;;;;;;;6.47;2.40;;;;;;;12.66;88.97;102054.66;4996276;28;20546;-57
2021/11/19 10:38:52;;;;;;;3.33;1.90;;;;;;;12.65;88.88;102069.97;4990513;28;20072;-57
2021/11/19 10:41:56;;;;;;;4.30;1.90;;;;;;;12.78;88.63;102052.81;4999375;28;20038;-57
2021/11/19 10:44:49;;;;;;;3.85;2.25;;;;;;;12.71;88.51;102052.06;4998586;28;20022;-55
2021/11/19 10:47:44;;;;;;;3.92;2.47;;;;;;;12.66;88.69;102062.72;4998612;28;20026;-54
2021/11/19 10:50:09;;;;;;;5.63;2.10;;;;;;;12.73;88.63;102074.19;5001884;28;20034;-57
2021/11/19 10:52:52;;;;;;;7.95;2.17;;;;;;;12.70;88.72;102063.88;5000666;28;20929;-57
2021/11/19 10:55:43;;;;;;;7.72;2.53;;;;;;;12.69;88.88;102063.06;5002526;28;20025;-58
2021/11/19 10:58:39;;;;;;;3.03;1.88;;;;;;;12.77;88.28;102056.56;4998050;28;20041;-57
2021/11/19 11:01:19;;;;;;;5.65;2.10;;;;;;;12.90;87.97;102067.09;5001548;28;20025;-58
2021/11/19 11:03:58;;;;;;;4.05;2.10;;;;;;;12.99;87.16;102063.00;4993213;28;20738;-58
2021/11/19 11:07:08;;;;;;;4.93;2.60;;;;;;;13.11;86.99;102062.22;5005085;28;20022;-57
2021/11/19 11:09:51;;;;;;;2.78;1.95;;;;;;;13.08;86.71;102055.41;4988480;28;20038;-57
2021/11/19 11:12:19;;;;;;;5.07;2.45;;;;;;;13.18;85.99;102052.19;4994656;28;20511;-57
2021/11/19 11:15:19;;;;;;;3.88;2.15;;;;;;;13.00;86.74;102063.84;4998186;28;20088;-57
2021/11/19 11:17:52;;;;;;;4.70;2.40;;;;;;;13.01;86.53;102068.97;4998653;28;20503;-57
2021/11/19 11:20:32;;;;;;;4.70;2.65;;;;;;;13.01;86.46;102066.28;4999436;28;20029;-57
2021/11/19 11:23:19;;;;;;;2.45;1.95;;;;;;;13.05;86.08;102073.91;4999983;28;20034;-57
2021/11/19 11:25:59;;;;;;;4.57;2.33;;;;;;;13.01;86.37;102065.47;5002285;28;20033;-57
2021/11/19 11:28:36;;;;;;;4.38;2.38;;;;;;;13.00;87.03;102067.34;5002865;28;20365;-57
2021/11/19 11:31:14;;;;;;;5.40;2.35;;;;;;;12.91;86.89;102068.72;5003026;28;20025;-57
2021/11/19 11:33:52;;;;;;;4.97;2.10;;;;;;;13.00;86.19;102075.41;4996422;28;20029;-56
2021/11/19 11:36:31;;;;;;;5.72;2.60;;;;;;;12.99;86.32;102078.34;4997720;28;20084;-57
2021/11/19 11:39:11;;;;;;;5.18;2.05;;;;;;;12.87;86.88;102059.47;5001700;28;20702;-57
2021/11/19 11:41:46;;;;;;;4.35;2.05;;;;;;;13.01;86.71;102066.28;4999090;28;20043;-56
2021/11/19 11:44:32;;;;;;;5.30;2.20;;;;;;;12.94;86.95;102062.91;4998341;28;20026;-55